sensor_id;sensor_type;location;lat;lon;timestamp;P1;durP1;ratioP1;P2;durP2;ratioP2
19575;SDS011;41589;51.196;7.074;2023-05-07T00:01:39;0.60;;;0.60;;
19575;SDS011;41589;51.196;7.074;2023-05-07T00:06:40;0.60;;;0.60;;
19575;SDS011;41589;51.196;7.074;2023-05-07T00:11:41;0.60;;;0.60;;
19575;SDS011;41589;51.196;7.074;2023-05-07T00:16:45;0.67;;;0.67;;
19575;SDS011;41589;51.196;7.074;2023-05-07T00:21:47;0.60;;;0.60;;
19575;SDS011;41589;51.196;7.074;2023-05-07T00:26:47;0.70;;;0.70;;
19575;SDS011;41589;51.196;7.074;2023-05-07T00:31:51;0.60;;;0.60;;
19575;SDS011;41589;51.196;7.074;2023-05-07T00:36:54;0.60;;;0.60;;
19575;SDS011;41589;51.196;7.074;2023-05-07T00:42:00;0.70;;;0.70;;
19575;SDS011;41589;51.196;7.074;2023-05-07T00:47:04;1.13;;;0.70;;
19575;SDS011;41589;51.196;7.074;2023-05-07T00:52:13;0.70;;;0.70;;
19575;SDS011;41589;51.196;7.074;2023-05-07T00:57:16;0.70;;;0.70;;
19575;SDS011;41589;51.196;7.074;2023-05-07T01:02:21;0.80;;;0.80;;
19575;SDS011;41589;51.196;7.074;2023-05-07T01:07:24;0.70;;;0.70;;
19575;SDS011;41589;51.196;7.074;2023-05-07T01:12:25;0.70;;;0.70;;
19575;SDS011;41589;51.196;7.074;2023-05-07T01:17:34;0.70;;;0.70;;
19575;SDS011;41589;51.196;7.074;2023-05-07T01:22:54;0.80;;;0.80;;
19575;SDS011;41589;51.196;7.074;2023-05-07T01:27:59;0.67;;;0.67;;
19575;SDS011;41589;51.196;7.074;2023-05-07T01:33:06;1.27;;;0.70;;
19575;SDS011;41589;51.196;7.074;2023-05-07T01:38:11;0.60;;;0.60;;
19575;SDS011;41589;51.196;7.074;2023-05-07T01:43:13;0.60;;;0.60;;
19575;SDS011;41589;51.196;7.074;2023-05-07T01:48:14;0.63;;;0.63;;
19575;SDS011;41589;51.196;7.074;2023-05-07T01:53:16;0.60;;;0.60;;
19575;SDS011;41589;51.196;7.074;2023-05-07T01:58:22;0.60;;;0.60;;
19575;SDS011;41589;51.196;7.074;2023-05-07T02:03:24;0.60;;;0.60;;
19575;SDS011;41589;51.196;7.074;2023-05-07T02:08:40;0.70;;;0.70;;
19575;SDS011;41589;51.196;7.074;2023-05-07T02:13:55;0.77;;;0.77;;
19575;SDS011;41589;51.196;7.074;2023-05-07T02:18:59;0.63;;;0.63;;
19575;SDS011;41589;51.196;7.074;2023-05-07T02:24:03;0.63;;;0.63;;
19575;SDS011;41589;51.196;7.074;2023-05-07T02:29:14;0.60;;;0.60;;
19575;SDS011;41589;51.196;7.074;2023-05-07T02:34:20;0.60;;;0.60;;
19575;SDS011;41589;51.196;7.074;2023-05-07T02:39:44;0.70;;;0.70;;
19575;SDS011;41589;51.196;7.074;2023-05-07T02:45:08;0.80;;;0.80;;
19575;SDS011;41589;51.196;7.074;2023-05-07T02:50:29;1.10;;;0.80;;
19575;SDS011;41589;51.196;7.074;2023-05-07T02:55:58;0.80;;;0.70;;
19575;SDS011;41589;51.196;7.074;2023-05-07T03:01:12;0.80;;;0.80;;
19575;SDS011;41589;51.196;7.074;2023-05-07T03:06:42;0.67;;;0.67;;
19575;SDS011;41589;51.196;7.074;2023-05-07T03:17:09;0.67;;;0.67;;
19575;SDS011;41589;51.196;7.074;2023-05-07T03:22:25;0.60;;;0.60;;
19575;SDS011;41589;51.196;7.074;2023-05-07T03:27:29;0.60;;;0.60;;
19575;SDS011;41589;51.196;7.074;2023-05-07T03:32:42;0.60;;;0.60;;
19575;SDS011;41589;51.196;7.074;2023-05-07T03:37:55;0.60;;;0.60;;
19575;SDS011;41589;51.196;7.074;2023-05-07T03:43:34;0.67;;;0.67;;
19575;SDS011;41589;51.196;7.074;2023-05-07T03:48:42;0.70;;;0.70;;
19575;SDS011;41589;51.196;7.074;2023-05-07T03:53:46;0.60;;;0.60;;
19575;SDS011;41589;51.196;7.074;2023-05-07T03:58:49;0.60;;;0.60;;
19575;SDS011;41589;51.196;7.074;2023-05-07T04:04:44;0.70;;;0.70;;
19575;SDS011;41589;51.196;7.074;2023-05-07T04:10:13;0.60;;;0.60;;
19575;SDS011;41589;51.196;7.074;2023-05-07T04:15:44;0.93;;;0.67;;
19575;SDS011;41589;51.196;7.074;2023-05-07T04:20:56;0.70;;;0.70;;
19575;SDS011;41589;51.196;7.074;2023-05-07T04:26:02;0.63;;;0.63;;
19575;SDS011;41589;51.196;7.074;2023-05-07T04:31:17;0.67;;;0.67;;
19575;SDS011;41589;51.196;7.074;2023-05-07T04:36:30;0.80;;;0.80;;
19575;SDS011;41589;51.196;7.074;2023-05-07T04:41:44;0.60;;;0.60;;
19575;SDS011;41589;51.196;7.074;2023-05-07T04:46:45;0.60;;;0.60;;
19575;SDS011;41589;51.196;7.074;2023-05-07T04:51:59;0.70;;;0.70;;
19575;SDS011;41589;51.196;7.074;2023-05-07T04:57:07;0.60;;;0.60;;
19575;SDS011;41589;51.196;7.074;2023-05-07T05:02:15;1.03;;;0.70;;
19575;SDS011;41589;51.196;7.074;2023-05-07T05:07:27;0.60;;;0.60;;
19575;SDS011;41589;51.196;7.074;2023-05-07T05:12:40;0.70;;;0.70;;
19575;SDS011;41589;51.196;7.074;2023-05-07T05:17:45;0.97;;;0.70;;
19575;SDS011;41589;51.196;7.074;2023-05-07T05:22:52;0.70;;;0.70;;
19575;SDS011;41589;51.196;7.074;2023-05-07T05:28:05;0.70;;;0.70;;
19575;SDS011;41589;51.196;7.074;2023-05-07T05:33:15;0.80;;;0.80;;
19575;SDS011;41589;51.196;7.074;2023-05-07T05:38:16;0.50;;;0.50;;
19575;SDS011;41589;51.196;7.074;2023-05-07T05:43:20;0.60;;;0.60;;
19575;SDS011;41589;51.196;7.074;2023-05-07T05:48:24;0.60;;;0.60;;
19575;SDS011;41589;51.196;7.074;2023-05-07T05:53:26;0.60;;;0.60;;
19575;SDS011;41589;51.196;7.074;2023-05-07T05:58:27;0.60;;;0.60;;
19575;SDS011;41589;51.196;7.074;2023-05-07T06:03:33;0.60;;;0.60;;
19575;SDS011;41589;51.196;7.074;2023-05-07T06:08:38;0.60;;;0.60;;
19575;SDS011;41589;51.196;7.074;2023-05-07T06:13:38;0.60;;;0.60;;
19575;SDS011;41589;51.196;7.074;2023-05-07T06:18:39;0.60;;;0.60;;
19575;SDS011;41589;51.196;7.074;2023-05-07T06:23:40;0.60;;;0.60;;
19575;SDS011;41589;51.196;7.074;2023-05-07T06:28:41;0.60;;;0.60;;
19575;SDS011;41589;51.196;7.074;2023-05-07T06:33:45;1.03;;;0.70;;
19575;SDS011;41589;51.196;7.074;2023-05-07T06:38:46;0.60;;;0.60;;
19575;SDS011;41589;51.196;7.074;2023-05-07T06:43:48;0.57;;;0.57;;
19575;SDS011;41589;51.196;7.074;2023-05-07T06:49:04;1.07;;;1.07;;
19575;SDS011;41589;51.196;7.074;2023-05-07T06:54:05;0.80;;;0.80;;
19575;SDS011;41589;51.196;7.074;2023-05-07T06:59:07;0.60;;;0.60;;
19575;SDS011;41589;51.196;7.074;2023-05-07T07:04:12;0.83;;;0.83;;
19575;SDS011;41589;51.196;7.074;2023-05-07T07:09:15;0.80;;;0.80;;
19575;SDS011;41589;51.196;7.074;2023-05-07T07:14:16;0.57;;;0.57;;
19575;SDS011;41589;51.196;7.074;2023-05-07T07:19:21;0.60;;;0.60;;
19575;SDS011;41589;51.196;7.074;2023-05-07T07:24:24;0.60;;;0.60;;
19575;SDS011;41589;51.196;7.074;2023-05-07T07:29:29;0.50;;;0.50;;
19575;SDS011;41589;51.196;7.074;2023-05-07T07:34:30;0.60;;;0.60;;
19575;SDS011;41589;51.196;7.074;2023-05-07T07:39:32;0.50;;;0.50;;
19575;SDS011;41589;51.196;7.074;2023-05-07T07:44:33;0.53;;;0.53;;
19575;SDS011;41589;51.196;7.074;2023-05-07T07:49:39;0.63;;;0.63;;
19575;SDS011;41589;51.196;7.074;2023-05-07T07:54:42;0.60;;;0.60;;
19575;SDS011;41589;51.196;7.074;2023-05-07T07:59:43;0.60;;;0.60;;
19575;SDS011;41589;51.196;7.074;2023-05-07T08:04:45;0.60;;;0.60;;
19575;SDS011;41589;51.196;7.074;2023-05-07T08:09:46;0.50;;;0.50;;
19575;SDS011;41589;51.196;7.074;2023-05-07T08:14:47;0.50;;;0.50;;
19575;SDS011;41589;51.196;7.074;2023-05-07T08:19:48;0.70;;;0.70;;
19575;SDS011;41589;51.196;7.074;2023-05-07T08:24:49;0.40;;;0.40;;
19575;SDS011;41589;51.196;7.074;2023-05-07T08:29:50;0.43;;;0.43;;
19575;SDS011;41589;51.196;7.074;2023-05-07T08:34:52;0.40;;;0.40;;
19575;SDS011;41589;51.196;7.074;2023-05-07T08:39:53;0.50;;;0.50;;
19575;SDS011;41589;51.196;7.074;2023-05-07T08:44:56;0.50;;;0.50;;
19575;SDS011;41589;51.196;7.074;2023-05-07T08:50:00;0.50;;;0.50;;
19575;SDS011;41589;51.196;7.074;2023-05-07T08:55:02;0.57;;;0.57;;
19575;SDS011;41589;51.196;7.074;2023-05-07T09:00:03;0.50;;;0.50;;
19575;SDS011;41589;51.196;7.074;2023-05-07T09:05:05;0.50;;;0.50;;
19575;SDS011;41589;51.196;7.074;2023-05-07T09:10:07;0.50;;;0.50;;
19575;SDS011;41589;51.196;7.074;2023-05-07T09:15:10;0.50;;;0.50;;
19575;SDS011;41589;51.196;7.074;2023-05-07T09:20:10;0.70;;;0.50;;
19575;SDS011;41589;51.196;7.074;2023-05-07T09:25:12;0.50;;;0.50;;
19575;SDS011;41589;51.196;7.074;2023-05-07T09:30:13;0.50;;;0.50;;
19575;SDS011;41589;51.196;7.074;2023-05-07T09:35:15;0.30;;;0.30;;
19575;SDS011;41589;51.196;7.074;2023-05-07T09:40:27;0.40;;;0.40;;
19575;SDS011;41589;51.196;7.074;2023-05-07T09:45:30;0.70;;;0.70;;
19575;SDS011;41589;51.196;7.074;2023-05-07T09:50:35;0.50;;;0.50;;
19575;SDS011;41589;51.196;7.074;2023-05-07T09:55:38;0.40;;;0.40;;
19575;SDS011;41589;51.196;7.074;2023-05-07T10:00:40;0.40;;;0.40;;
19575;SDS011;41589;51.196;7.074;2023-05-07T10:05:46;0.40;;;0.40;;
19575;SDS011;41589;51.196;7.074;2023-05-07T10:10:48;0.50;;;0.50;;
19575;SDS011;41589;51.196;7.074;2023-05-07T10:15:53;0.40;;;0.40;;
19575;SDS011;41589;51.196;7.074;2023-05-07T10:20:56;0.33;;;0.33;;
19575;SDS011;41589;51.196;7.074;2023-05-07T10:26:11;0.43;;;0.43;;
19575;SDS011;41589;51.196;7.074;2023-05-07T10:31:16;0.40;;;0.40;;
19575;SDS011;41589;51.196;7.074;2023-05-07T10:36:21;0.87;;;0.40;;
19575;SDS011;41589;51.196;7.074;2023-05-07T10:41:23;0.40;;;0.40;;
19575;SDS011;41589;51.196;7.074;2023-05-07T10:46:25;0.60;;;0.60;;
19575;SDS011;41589;51.196;7.074;2023-05-07T10:51:41;0.50;;;0.50;;
19575;SDS011;41589;51.196;7.074;2023-05-07T10:56:52;0.33;;;0.33;;
19575;SDS011;41589;51.196;7.074;2023-05-07T11:02:03;0.50;;;0.50;;
19575;SDS011;41589;51.196;7.074;2023-05-07T11:07:28;0.30;;;0.30;;
19575;SDS011;41589;51.196;7.074;2023-05-07T11:22:54;0.60;;;0.60;;
19575;SDS011;41589;51.196;7.074;2023-05-07T11:28:06;0.40;;;0.40;;
19575;SDS011;41589;51.196;7.074;2023-05-07T11:33:12;0.30;;;0.30;;
19575;SDS011;41589;51.196;7.074;2023-05-07T11:38:17;0.50;;;0.50;;
19575;SDS011;41589;51.196;7.074;2023-05-07T11:43:18;0.50;;;0.50;;
19575;SDS011;41589;51.196;7.074;2023-05-07T11:48:19;0.47;;;0.47;;
19575;SDS011;41589;51.196;7.074;2023-05-07T11:53:24;0.60;;;0.60;;
19575;SDS011;41589;51.196;7.074;2023-05-07T11:58:25;0.73;;;0.60;;
19575;SDS011;41589;51.196;7.074;2023-05-07T12:03:25;0.60;;;0.60;;
19575;SDS011;41589;51.196;7.074;2023-05-07T12:08:26;0.50;;;0.50;;
19575;SDS011;41589;51.196;7.074;2023-05-07T12:13:26;0.57;;;0.57;;
19575;SDS011;41589;51.196;7.074;2023-05-07T12:18:27;0.50;;;0.50;;
19575;SDS011;41589;51.196;7.074;2023-05-07T12:23:28;0.40;;;0.40;;
19575;SDS011;41589;51.196;7.074;2023-05-07T12:28:29;0.50;;;0.50;;
19575;SDS011;41589;51.196;7.074;2023-05-07T12:33:30;0.50;;;0.50;;
19575;SDS011;41589;51.196;7.074;2023-05-07T12:38:36;0.50;;;0.50;;
19575;SDS011;41589;51.196;7.074;2023-05-07T12:43:41;0.40;;;0.40;;
19575;SDS011;41589;51.196;7.074;2023-05-07T12:48:45;0.50;;;0.50;;
19575;SDS011;41589;51.196;7.074;2023-05-07T12:53:46;0.70;;;0.60;;
19575;SDS011;41589;51.196;7.074;2023-05-07T12:58:48;0.93;;;0.80;;
19575;SDS011;41589;51.196;7.074;2023-05-07T13:03:48;0.93;;;0.90;;
19575;SDS011;41589;51.196;7.074;2023-05-07T13:08:50;0.83;;;0.83;;
19575;SDS011;41589;51.196;7.074;2023-05-07T13:13:50;0.70;;;0.70;;
19575;SDS011;41589;51.196;7.074;2023-05-07T13:18:51;2.27;;;0.90;;
19575;SDS011;41589;51.196;7.074;2023-05-07T13:23:51;0.80;;;0.80;;
19575;SDS011;41589;51.196;7.074;2023-05-07T13:28:52;0.70;;;0.70;;
19575;SDS011;41589;51.196;7.074;2023-05-07T13:33:53;1.10;;;1.00;;
19575;SDS011;41589;51.196;7.074;2023-05-07T13:38:56;1.10;;;1.00;;
19575;SDS011;41589;51.196;7.074;2023-05-07T13:43:56;0.80;;;0.80;;
19575;SDS011;41589;51.196;7.074;2023-05-07T13:48:56;0.70;;;0.70;;
19575;SDS011;41589;51.196;7.074;2023-05-07T13:53:57;0.70;;;0.70;;
19575;SDS011;41589;51.196;7.074;2023-05-07T13:58:58;0.60;;;0.60;;
19575;SDS011;41589;51.196;7.074;2023-05-07T14:03:59;0.73;;;0.70;;
19575;SDS011;41589;51.196;7.074;2023-05-07T14:08:59;0.70;;;0.70;;
19575;SDS011;41589;51.196;7.074;2023-05-07T14:14:00;0.60;;;0.60;;
19575;SDS011;41589;51.196;7.074;2023-05-07T14:19:00;0.70;;;0.70;;
19575;SDS011;41589;51.196;7.074;2023-05-07T14:24:00;0.70;;;0.70;;
19575;SDS011;41589;51.196;7.074;2023-05-07T14:29:01;0.90;;;0.90;;
19575;SDS011;41589;51.196;7.074;2023-05-07T14:34:02;0.97;;;0.90;;
19575;SDS011;41589;51.196;7.074;2023-05-07T14:39:02;0.80;;;0.80;;
19575;SDS011;41589;51.196;7.074;2023-05-07T14:44:03;1.13;;;0.90;;
19575;SDS011;41589;51.196;7.074;2023-05-07T14:49:04;2.57;;;1.10;;
19575;SDS011;41589;51.196;7.074;2023-05-07T14:54:05;1.57;;;1.47;;
19575;SDS011;41589;51.196;7.074;2023-05-07T14:59:09;1.30;;;1.30;;
19575;SDS011;41589;51.196;7.074;2023-05-07T15:04:10;0.90;;;0.90;;
19575;SDS011;41589;51.196;7.074;2023-05-07T15:09:11;0.90;;;0.90;;
19575;SDS011;41589;51.196;7.074;2023-05-07T15:14:17;0.77;;;0.77;;
19575;SDS011;41589;51.196;7.074;2023-05-07T15:19:18;1.10;;;1.10;;
19575;SDS011;41589;51.196;7.074;2023-05-07T15:24:18;1.17;;;1.17;;
19575;SDS011;41589;51.196;7.074;2023-05-07T15:29:18;1.60;;;1.50;;
19575;SDS011;41589;51.196;7.074;2023-05-07T15:34:19;1.33;;;1.33;;
19575;SDS011;41589;51.196;7.074;2023-05-07T15:39:20;1.90;;;1.63;;
19575;SDS011;41589;51.196;7.074;2023-05-07T15:44:21;1.40;;;1.40;;
19575;SDS011;41589;51.196;7.074;2023-05-07T15:49:21;1.50;;;1.40;;
19575;SDS011;41589;51.196;7.074;2023-05-07T15:54:55;1.10;;;1.10;;
19575;SDS011;41589;51.196;7.074;2023-05-07T15:59:56;1.00;;;1.00;;
19575;SDS011;41589;51.196;7.074;2023-05-07T16:04:57;1.00;;;1.00;;
19575;SDS011;41589;51.196;7.074;2023-05-07T16:09:57;0.90;;;0.90;;
19575;SDS011;41589;51.196;7.074;2023-05-07T16:14:57;0.70;;;0.70;;
19575;SDS011;41589;51.196;7.074;2023-05-07T16:19:58;0.77;;;0.77;;
19575;SDS011;41589;51.196;7.074;2023-05-07T16:24:58;0.60;;;0.60;;
19575;SDS011;41589;51.196;7.074;2023-05-07T16:29:59;0.73;;;0.73;;
19575;SDS011;41589;51.196;7.074;2023-05-07T16:35:00;0.73;;;0.73;;
19575;SDS011;41589;51.196;7.074;2023-05-07T16:40:00;0.83;;;0.83;;
19575;SDS011;41589;51.196;7.074;2023-05-07T16:45:02;0.93;;;0.93;;
19575;SDS011;41589;51.196;7.074;2023-05-07T16:50:03;0.80;;;0.80;;
19575;SDS011;41589;51.196;7.074;2023-05-07T16:55:04;0.87;;;0.87;;
19575;SDS011;41589;51.196;7.074;2023-05-07T17:00:05;0.90;;;0.90;;
19575;SDS011;41589;51.196;7.074;2023-05-07T17:05:06;0.90;;;0.90;;
19575;SDS011;41589;51.196;7.074;2023-05-07T17:10:07;0.80;;;0.80;;
19575;SDS011;41589;51.196;7.074;2023-05-07T17:15:08;0.80;;;0.80;;
19575;SDS011;41589;51.196;7.074;2023-05-07T17:20:09;0.80;;;0.80;;
19575;SDS011;41589;51.196;7.074;2023-05-07T17:25:10;0.70;;;0.70;;
19575;SDS011;41589;51.196;7.074;2023-05-07T17:30:14;0.70;;;0.70;;
19575;SDS011;41589;51.196;7.074;2023-05-07T17:35:20;0.70;;;0.70;;
19575;SDS011;41589;51.196;7.074;2023-05-07T17:40:44;1.13;;;0.70;;
19575;SDS011;41589;51.196;7.074;2023-05-07T17:45:59;0.70;;;0.70;;
19575;SDS011;41589;51.196;7.074;2023-05-07T17:51:09;0.80;;;0.80;;
19575;SDS011;41589;51.196;7.074;2023-05-07T17:56:10;0.80;;;0.80;;
19575;SDS011;41589;51.196;7.074;2023-05-07T18:01:14;0.90;;;0.90;;
19575;SDS011;41589;51.196;7.074;2023-05-07T18:06:15;1.43;;;0.90;;
19575;SDS011;41589;51.196;7.074;2023-05-07T18:11:18;0.80;;;0.80;;
19575;SDS011;41589;51.196;7.074;2023-05-07T18:16:24;0.90;;;0.90;;
19575;SDS011;41589;51.196;7.074;2023-05-07T18:21:25;0.90;;;0.90;;
19575;SDS011;41589;51.196;7.074;2023-05-07T18:26:34;0.73;;;0.73;;
19575;SDS011;41589;51.196;7.074;2023-05-07T18:31:38;0.80;;;0.80;;
19575;SDS011;41589;51.196;7.074;2023-05-07T18:36:48;0.90;;;0.90;;
19575;SDS011;41589;51.196;7.074;2023-05-07T18:41:48;0.80;;;0.80;;
19575;SDS011;41589;51.196;7.074;2023-05-07T18:46:49;0.77;;;0.77;;
19575;SDS011;41589;51.196;7.074;2023-05-07T18:51:50;0.80;;;0.80;;
19575;SDS011;41589;51.196;7.074;2023-05-07T18:56:52;0.90;;;0.90;;
19575;SDS011;41589;51.196;7.074;2023-05-07T19:01:52;1.70;;;1.00;;
19575;SDS011;41589;51.196;7.074;2023-05-07T19:06:53;0.90;;;0.90;;
19575;SDS011;41589;51.196;7.074;2023-05-07T19:11:53;0.93;;;0.93;;
19575;SDS011;41589;51.196;7.074;2023-05-07T19:16:54;1.10;;;1.10;;
19575;SDS011;41589;51.196;7.074;2023-05-07T19:21:55;1.10;;;1.10;;
19575;SDS011;41589;51.196;7.074;2023-05-07T19:26:56;1.30;;;1.20;;
19575;SDS011;41589;51.196;7.074;2023-05-07T19:31:56;1.90;;;1.60;;
19575;SDS011;41589;51.196;7.074;2023-05-07T19:36:57;3.90;;;1.20;;
19575;SDS011;41589;51.196;7.074;2023-05-07T19:41:57;1.13;;;1.13;;
19575;SDS011;41589;51.196;7.074;2023-05-07T19:46:57;1.33;;;1.33;;
19575;SDS011;41589;51.196;7.074;2023-05-07T19:51:58;1.17;;;1.17;;
19575;SDS011;41589;51.196;7.074;2023-05-07T19:56:58;1.20;;;1.20;;
19575;SDS011;41589;51.196;7.074;2023-05-07T20:01:59;1.37;;;1.27;;
19575;SDS011;41589;51.196;7.074;2023-05-07T20:06:59;1.30;;;1.20;;
19575;SDS011;41589;51.196;7.074;2023-05-07T20:11:59;1.10;;;1.10;;
19575;SDS011;41589;51.196;7.074;2023-05-07T20:17:00;1.10;;;1.10;;
19575;SDS011;41589;51.196;7.074;2023-05-07T20:22:00;1.13;;;1.13;;
19575;SDS011;41589;51.196;7.074;2023-05-07T20:27:01;1.20;;;1.20;;
19575;SDS011;41589;51.196;7.074;2023-05-07T20:32:03;1.20;;;1.20;;
19575;SDS011;41589;51.196;7.074;2023-05-07T20:37:03;1.30;;;1.30;;
19575;SDS011;41589;51.196;7.074;2023-05-07T20:42:05;1.00;;;1.00;;
19575;SDS011;41589;51.196;7.074;2023-05-07T20:47:06;1.00;;;1.00;;
19575;SDS011;41589;51.196;7.074;2023-05-07T20:52:06;4.13;;;2.17;;
19575;SDS011;41589;51.196;7.074;2023-05-07T20:57:06;1.80;;;1.30;;
19575;SDS011;41589;51.196;7.074;2023-05-07T21:02:07;1.40;;;1.30;;
19575;SDS011;41589;51.196;7.074;2023-05-07T21:07:07;0.93;;;0.93;;
19575;SDS011;41589;51.196;7.074;2023-05-07T21:12:08;1.03;;;1.03;;
19575;SDS011;41589;51.196;7.074;2023-05-07T21:17:08;1.23;;;1.23;;
19575;SDS011;41589;51.196;7.074;2023-05-07T21:22:09;1.20;;;1.20;;
19575;SDS011;41589;51.196;7.074;2023-05-07T21:27:12;1.30;;;1.30;;
19575;SDS011;41589;51.196;7.074;2023-05-07T21:32:13;1.20;;;1.20;;
19575;SDS011;41589;51.196;7.074;2023-05-07T21:37:14;1.43;;;1.33;;
19575;SDS011;41589;51.196;7.074;2023-05-07T21:42:15;1.30;;;1.30;;
19575;SDS011;41589;51.196;7.074;2023-05-07T21:47:23;1.10;;;1.10;;
19575;SDS011;41589;51.196;7.074;2023-05-07T21:52:24;1.10;;;1.10;;
19575;SDS011;41589;51.196;7.074;2023-05-07T21:57:25;0.93;;;0.93;;
19575;SDS011;41589;51.196;7.074;2023-05-07T22:02:26;1.20;;;1.10;;
19575;SDS011;41589;51.196;7.074;2023-05-07T22:07:26;1.43;;;1.30;;
19575;SDS011;41589;51.196;7.074;2023-05-07T22:12:27;1.20;;;1.20;;
19575;SDS011;41589;51.196;7.074;2023-05-07T22:17:28;1.30;;;1.10;;
19575;SDS011;41589;51.196;7.074;2023-05-07T22:22:29;1.13;;;1.13;;
19575;SDS011;41589;51.196;7.074;2023-05-07T22:27:33;1.00;;;1.00;;
19575;SDS011;41589;51.196;7.074;2023-05-07T22:32:37;1.00;;;1.00;;
19575;SDS011;41589;51.196;7.074;2023-05-07T22:37:38;1.17;;;1.17;;
19575;SDS011;41589;51.196;7.074;2023-05-07T22:42:39;1.10;;;1.10;;
19575;SDS011;41589;51.196;7.074;2023-05-07T22:47:40;1.10;;;1.10;;
19575;SDS011;41589;51.196;7.074;2023-05-07T22:52:44;1.20;;;1.20;;
19575;SDS011;41589;51.196;7.074;2023-05-07T22:57:47;1.70;;;1.33;;
19575;SDS011;41589;51.196;7.074;2023-05-07T23:02:48;0.97;;;0.97;;
19575;SDS011;41589;51.196;7.074;2023-05-07T23:07:52;1.27;;;1.27;;
19575;SDS011;41589;51.196;7.074;2023-05-07T23:12:56;1.30;;;1.30;;
19575;SDS011;41589;51.196;7.074;2023-05-07T23:17:57;1.40;;;1.30;;
19575;SDS011;41589;51.196;7.074;2023-05-07T23:22:58;1.20;;;1.20;;
19575;SDS011;41589;51.196;7.074;2023-05-07T23:27:59;1.23;;;1.23;;
19575;SDS011;41589;51.196;7.074;2023-05-07T23:33:00;1.17;;;1.17;;
19575;SDS011;41589;51.196;7.074;2023-05-07T23:38:02;1.20;;;1.20;;
19575;SDS011;41589;51.196;7.074;2023-05-07T23:43:03;0.97;;;0.97;;
19575;SDS011;41589;51.196;7.074;2023-05-07T23:48:04;1.20;;;1.20;;
19575;SDS011;41589;51.196;7.074;2023-05-07T23:53:08;1.33;;;1.33;;
19575;SDS011;41589;51.196;7.074;2023-05-07T23:58:10;1.03;;;1.03;;
